sensor_id;sensor_type;location;lat;lon;timestamp;temperature;humidity
9810;DHT22;4944;52.514;13.192;2023-12-20T00:00:21;7.10;99.90
9810;DHT22;4944;52.514;13.192;2023-12-20T00:02:48;7.10;99.90
9810;DHT22;4944;52.514;13.192;2023-12-20T00:05:15;7.20;99.90
9810;DHT22;4944;52.514;13.192;2023-12-20T00:07:42;7.10;99.90
9810;DHT22;4944;52.514;13.192;2023-12-20T00:10:09;7.10;99.90
9810;DHT22;4944;52.514;13.192;2023-12-20T00:12:39;7.20;99.90
9810;DHT22;4944;52.514;13.192;2023-12-20T00:15:07;7.20;99.90
9810;DHT22;4944;52.514;13.192;2023-12-20T00:17:34;7.20;99.90
9810;DHT22;4944;52.514;13.192;2023-12-20T00:20:01;7.20;99.90
9810;DHT22;4944;52.514;13.192;2023-12-20T00:22:28;7.10;99.90
9810;DHT22;4944;52.514;13.192;2023-12-20T00:24:55;7.20;99.90
9810;DHT22;4944;52.514;13.192;2023-12-20T00:27:22;7.20;99.90
9810;DHT22;4944;52.514;13.192;2023-12-20T00:29:50;7.20;99.90
9810;DHT22;4944;52.514;13.192;2023-12-20T00:32:17;7.20;99.90
9810;DHT22;4944;52.514;13.192;2023-12-20T00:34:45;7.10;99.90
9810;DHT22;4944;52.514;13.192;2023-12-20T00:37:12;7.10;99.90
9810;DHT22;4944;52.514;13.192;2023-12-20T00:39:38;7.20;99.90
9810;DHT22;4944;52.514;13.192;2023-12-20T00:42:05;7.20;99.90
9810;DHT22;4944;52.514;13.192;2023-12-20T00:44:32;7.20;99.90
9810;DHT22;4944;52.514;13.192;2023-12-20T00:47:00;7.20;99.90
9810;DHT22;4944;52.514;13.192;2023-12-20T00:49:27;7.20;99.90
9810;DHT22;4944;52.514;13.192;2023-12-20T00:51:54;7.20;99.90
9810;DHT22;4944;52.514;13.192;2023-12-20T00:54:21;7.20;99.90
9810;DHT22;4944;52.514;13.192;2023-12-20T00:56:48;7.20;99.90
9810;DHT22;4944;52.514;13.192;2023-12-20T00:59:16;7.10;99.90
9810;DHT22;4944;52.514;13.192;2023-12-20T01:01:43;7.20;99.90
9810;DHT22;4944;52.514;13.192;2023-12-20T01:04:11;7.20;99.90
9810;DHT22;4944;52.514;13.192;2023-12-20T01:06:38;7.20;99.90
9810;DHT22;4944;52.514;13.192;2023-12-20T01:09:05;7.20;99.90
9810;DHT22;4944;52.514;13.192;2023-12-20T01:11:31;7.20;99.90
9810;DHT22;4944;52.514;13.192;2023-12-20T01:13:58;7.20;99.90
9810;DHT22;4944;52.514;13.192;2023-12-20T01:16:25;7.20;99.90
9810;DHT22;4944;52.514;13.192;2023-12-20T01:18:52;7.20;99.90
9810;DHT22;4944;52.514;13.192;2023-12-20T01:21:20;7.20;99.90
9810;DHT22;4944;52.514;13.192;2023-12-20T01:23:47;7.20;99.90
9810;DHT22;4944;52.514;13.192;2023-12-20T01:26:15;7.20;99.90
9810;DHT22;4944;52.514;13.192;2023-12-20T01:28:42;7.20;99.90
9810;DHT22;4944;52.514;13.192;2023-12-20T01:31:09;7.20;99.90
9810;DHT22;4944;52.514;13.192;2023-12-20T01:33:36;7.20;99.90
9810;DHT22;4944;52.514;13.192;2023-12-20T01:36:03;7.20;99.90
9810;DHT22;4944;52.514;13.192;2023-12-20T01:38:31;7.20;99.90
9810;DHT22;4944;52.514;13.192;2023-12-20T01:40:58;7.20;99.90
9810;DHT22;4944;52.514;13.192;2023-12-20T01:43:26;7.30;99.90
9810;DHT22;4944;52.514;13.192;2023-12-20T01:45:53;7.10;99.90
9810;DHT22;4944;52.514;13.192;2023-12-20T01:48:22;7.10;99.90
9810;DHT22;4944;52.514;13.192;2023-12-20T01:50:49;7.10;99.90
9810;DHT22;4944;52.514;13.192;2023-12-20T01:53:16;7.10;99.90
9810;DHT22;4944;52.514;13.192;2023-12-20T01:55:45;7.20;99.90
9810;DHT22;4944;52.514;13.192;2023-12-20T01:58:13;7.20;99.90
9810;DHT22;4944;52.514;13.192;2023-12-20T02:00:40;7.20;99.90
9810;DHT22;4944;52.514;13.192;2023-12-20T02:03:07;7.20;99.90
9810;DHT22;4944;52.514;13.192;2023-12-20T02:05:35;7.20;99.90
9810;DHT22;4944;52.514;13.192;2023-12-20T02:08:03;7.20;99.90
9810;DHT22;4944;52.514;13.192;2023-12-20T02:10:31;7.20;99.90
9810;DHT22;4944;52.514;13.192;2023-12-20T02:12:59;7.20;99.90
9810;DHT22;4944;52.514;13.192;2023-12-20T02:15:26;7.20;99.90
9810;DHT22;4944;52.514;13.192;2023-12-20T02:17:53;7.20;99.90
9810;DHT22;4944;52.514;13.192;2023-12-20T02:20:21;7.10;99.90
9810;DHT22;4944;52.514;13.192;2023-12-20T02:22:49;7.10;99.90
9810;DHT22;4944;52.514;13.192;2023-12-20T02:25:16;7.20;99.90
9810;DHT22;4944;52.514;13.192;2023-12-20T02:27:43;7.20;99.90
9810;DHT22;4944;52.514;13.192;2023-12-20T02:30:10;7.10;99.90
9810;DHT22;4944;52.514;13.192;2023-12-20T02:32:37;7.20;99.90
9810;DHT22;4944;52.514;13.192;2023-12-20T02:35:05;7.20;99.90
9810;DHT22;4944;52.514;13.192;2023-12-20T02:37:33;7.20;99.90
9810;DHT22;4944;52.514;13.192;2023-12-20T02:40:01;7.20;99.90
9810;DHT22;4944;52.514;13.192;2023-12-20T02:42:29;7.10;99.90
9810;DHT22;4944;52.514;13.192;2023-12-20T02:44:56;7.20;99.90
9810;DHT22;4944;52.514;13.192;2023-12-20T02:47:23;7.20;99.90
9810;DHT22;4944;52.514;13.192;2023-12-20T02:49:50;7.20;99.90
9810;DHT22;4944;52.514;13.192;2023-12-20T02:52:18;7.20;99.90
9810;DHT22;4944;52.514;13.192;2023-12-20T02:54:45;7.20;99.90
9810;DHT22;4944;52.514;13.192;2023-12-20T02:57:13;7.20;99.90
9810;DHT22;4944;52.514;13.192;2023-12-20T02:59:40;7.20;99.90
9810;DHT22;4944;52.514;13.192;2023-12-20T03:02:07;7.20;99.90
9810;DHT22;4944;52.514;13.192;2023-12-20T03:04:34;7.20;99.90
9810;DHT22;4944;52.514;13.192;2023-12-20T03:07:01;7.20;99.90
9810;DHT22;4944;52.514;13.192;2023-12-20T03:09:27;7.20;99.90
9810;DHT22;4944;52.514;13.192;2023-12-20T03:11:54;7.10;99.90
9810;DHT22;4944;52.514;13.192;2023-12-20T03:14:22;7.20;99.90
9810;DHT22;4944;52.514;13.192;2023-12-20T03:16:50;7.10;99.90
9810;DHT22;4944;52.514;13.192;2023-12-20T03:19:17;7.10;99.90
9810;DHT22;4944;52.514;13.192;2023-12-20T03:21:45;7.10;99.90
9810;DHT22;4944;52.514;13.192;2023-12-20T03:24:11;7.10;99.90
9810;DHT22;4944;52.514;13.192;2023-12-20T03:26:38;7.10;99.90
9810;DHT22;4944;52.514;13.192;2023-12-20T03:29:05;7.10;99.90
9810;DHT22;4944;52.514;13.192;2023-12-20T03:31:33;7.10;99.90
9810;DHT22;4944;52.514;13.192;2023-12-20T03:34:00;7.10;99.90
9810;DHT22;4944;52.514;13.192;2023-12-20T03:36:27;7.10;99.90
9810;DHT22;4944;52.514;13.192;2023-12-20T03:38:54;7.10;99.90
9810;DHT22;4944;52.514;13.192;2023-12-20T03:41:21;7.10;99.90
9810;DHT22;4944;52.514;13.192;2023-12-20T03:43:48;7.10;99.90
9810;DHT22;4944;52.514;13.192;2023-12-20T03:46:14;7.10;99.90
9810;DHT22;4944;52.514;13.192;2023-12-20T03:48:43;7.10;99.90
9810;DHT22;4944;52.514;13.192;2023-12-20T03:51:10;7.10;99.90
9810;DHT22;4944;52.514;13.192;2023-12-20T03:53:37;7.10;99.90
9810;DHT22;4944;52.514;13.192;2023-12-20T03:56:06;7.10;99.90
9810;DHT22;4944;52.514;13.192;2023-12-20T03:58:33;7.10;99.90
9810;DHT22;4944;52.514;13.192;2023-12-20T04:01:00;7.10;99.90
9810;DHT22;4944;52.514;13.192;2023-12-20T04:03:26;7.00;99.90
9810;DHT22;4944;52.514;13.192;2023-12-20T04:05:55;7.10;99.90
9810;DHT22;4944;52.514;13.192;2023-12-20T04:08:22;7.00;99.90
9810;DHT22;4944;52.514;13.192;2023-12-20T04:10:49;7.00;99.90
9810;DHT22;4944;52.514;13.192;2023-12-20T04:13:16;7.00;99.90
9810;DHT22;4944;52.514;13.192;2023-12-20T04:15:43;7.00;99.90
9810;DHT22;4944;52.514;13.192;2023-12-20T04:18:09;7.00;99.90
9810;DHT22;4944;52.514;13.192;2023-12-20T04:20:36;7.00;99.90
9810;DHT22;4944;52.514;13.192;2023-12-20T04:23:05;6.90;99.90
9810;DHT22;4944;52.514;13.192;2023-12-20T04:25:31;6.90;99.90
9810;DHT22;4944;52.514;13.192;2023-12-20T04:27:58;6.90;99.90
9810;DHT22;4944;52.514;13.192;2023-12-20T04:30:25;6.90;99.90
9810;DHT22;4944;52.514;13.192;2023-12-20T04:32:52;6.80;99.90
9810;DHT22;4944;52.514;13.192;2023-12-20T04:35:19;6.80;99.90
9810;DHT22;4944;52.514;13.192;2023-12-20T04:37:46;6.80;99.90
9810;DHT22;4944;52.514;13.192;2023-12-20T04:40:16;6.80;99.90
9810;DHT22;4944;52.514;13.192;2023-12-20T04:42:43;6.70;99.90
9810;DHT22;4944;52.514;13.192;2023-12-20T04:45:10;6.70;99.90
9810;DHT22;4944;52.514;13.192;2023-12-20T04:47:38;6.60;99.90
9810;DHT22;4944;52.514;13.192;2023-12-20T04:50:06;6.60;99.90
9810;DHT22;4944;52.514;13.192;2023-12-20T04:52:33;6.60;99.90
9810;DHT22;4944;52.514;13.192;2023-12-20T04:55:00;6.50;99.90
9810;DHT22;4944;52.514;13.192;2023-12-20T04:57:28;6.50;99.90
9810;DHT22;4944;52.514;13.192;2023-12-20T04:59:55;6.50;99.90
9810;DHT22;4944;52.514;13.192;2023-12-20T05:02:22;6.50;99.90
9810;DHT22;4944;52.514;13.192;2023-12-20T05:04:49;6.50;99.90
9810;DHT22;4944;52.514;13.192;2023-12-20T05:07:16;6.40;99.90
9810;DHT22;4944;52.514;13.192;2023-12-20T05:09:43;6.40;99.90
9810;DHT22;4944;52.514;13.192;2023-12-20T05:12:10;6.50;99.90
9810;DHT22;4944;52.514;13.192;2023-12-20T05:14:38;6.40;99.90
9810;DHT22;4944;52.514;13.192;2023-12-20T05:17:05;6.40;99.90
9810;DHT22;4944;52.514;13.192;2023-12-20T05:19:32;6.30;99.90
9810;DHT22;4944;52.514;13.192;2023-12-20T05:22:00;6.30;99.90
9810;DHT22;4944;52.514;13.192;2023-12-20T05:24:27;6.30;99.90
9810;DHT22;4944;52.514;13.192;2023-12-20T05:26:54;6.20;99.90
9810;DHT22;4944;52.514;13.192;2023-12-20T05:29:21;6.20;99.90
9810;DHT22;4944;52.514;13.192;2023-12-20T05:31:49;6.20;99.90
9810;DHT22;4944;52.514;13.192;2023-12-20T05:34:16;6.10;99.90
9810;DHT22;4944;52.514;13.192;2023-12-20T05:36:43;6.10;99.90
9810;DHT22;4944;52.514;13.192;2023-12-20T05:39:10;6.10;99.90
9810;DHT22;4944;52.514;13.192;2023-12-20T05:41:37;6.00;99.90
9810;DHT22;4944;52.514;13.192;2023-12-20T05:44:04;6.00;99.90
9810;DHT22;4944;52.514;13.192;2023-12-20T05:46:31;6.00;99.90
9810;DHT22;4944;52.514;13.192;2023-12-20T05:48:59;6.00;99.90
9810;DHT22;4944;52.514;13.192;2023-12-20T05:51:26;5.90;99.90
9810;DHT22;4944;52.514;13.192;2023-12-20T05:53:53;5.90;99.90
9810;DHT22;4944;52.514;13.192;2023-12-20T05:56:20;5.90;99.90
9810;DHT22;4944;52.514;13.192;2023-12-20T05:58:47;5.80;99.90
9810;DHT22;4944;52.514;13.192;2023-12-20T06:01:14;5.90;99.90
9810;DHT22;4944;52.514;13.192;2023-12-20T06:03:42;5.80;99.90
9810;DHT22;4944;52.514;13.192;2023-12-20T06:06:11;5.80;99.90
9810;DHT22;4944;52.514;13.192;2023-12-20T06:08:38;5.80;99.90
9810;DHT22;4944;52.514;13.192;2023-12-20T06:11:05;5.80;99.90
9810;DHT22;4944;52.514;13.192;2023-12-20T06:13:32;5.70;99.90
9810;DHT22;4944;52.514;13.192;2023-12-20T06:15:58;5.70;99.90
9810;DHT22;4944;52.514;13.192;2023-12-20T06:18:26;5.60;99.90
9810;DHT22;4944;52.514;13.192;2023-12-20T06:20:52;5.70;99.90
9810;DHT22;4944;52.514;13.192;2023-12-20T06:23:21;5.70;99.90
9810;DHT22;4944;52.514;13.192;2023-12-20T06:25:47;5.70;99.90
9810;DHT22;4944;52.514;13.192;2023-12-20T06:28:14;5.70;99.90
9810;DHT22;4944;52.514;13.192;2023-12-20T06:30:41;5.70;99.90
9810;DHT22;4944;52.514;13.192;2023-12-20T06:33:08;5.70;99.90
9810;DHT22;4944;52.514;13.192;2023-12-20T06:35:37;5.70;99.90
9810;DHT22;4944;52.514;13.192;2023-12-20T06:38:04;5.60;99.90
9810;DHT22;4944;52.514;13.192;2023-12-20T06:40:31;5.60;99.90
9810;DHT22;4944;52.514;13.192;2023-12-20T06:42:58;5.70;99.90
9810;DHT22;4944;52.514;13.192;2023-12-20T06:45:25;5.60;99.90
9810;DHT22;4944;52.514;13.192;2023-12-20T06:47:52;5.70;99.90
9810;DHT22;4944;52.514;13.192;2023-12-20T06:50:20;5.70;99.90
9810;DHT22;4944;52.514;13.192;2023-12-20T06:52:47;5.70;99.90
9810;DHT22;4944;52.514;13.192;2023-12-20T06:55:14;5.80;99.90
9810;DHT22;4944;52.514;13.192;2023-12-20T06:57:44;5.80;99.90
9810;DHT22;4944;52.514;13.192;2023-12-20T07:00:12;5.80;99.90
9810;DHT22;4944;52.514;13.192;2023-12-20T07:02:39;5.80;99.90
9810;DHT22;4944;52.514;13.192;2023-12-20T07:05:06;5.80;99.90
9810;DHT22;4944;52.514;13.192;2023-12-20T07:07:33;5.80;99.90
9810;DHT22;4944;52.514;13.192;2023-12-20T07:10:00;5.80;99.90
9810;DHT22;4944;52.514;13.192;2023-12-20T07:12:27;5.80;99.90
9810;DHT22;4944;52.514;13.192;2023-12-20T07:14:55;5.80;99.90
9810;DHT22;4944;52.514;13.192;2023-12-20T07:17:22;5.80;99.90
9810;DHT22;4944;52.514;13.192;2023-12-20T07:19:49;5.80;99.90
9810;DHT22;4944;52.514;13.192;2023-12-20T07:22:16;5.90;99.90
9810;DHT22;4944;52.514;13.192;2023-12-20T07:24:43;5.90;99.90
9810;DHT22;4944;52.514;13.192;2023-12-20T07:27:10;5.90;99.90
9810;DHT22;4944;52.514;13.192;2023-12-20T07:29:36;5.80;99.90
9810;DHT22;4944;52.514;13.192;2023-12-20T07:32:06;5.90;99.90
9810;DHT22;4944;52.514;13.192;2023-12-20T07:34:34;5.90;99.90
9810;DHT22;4944;52.514;13.192;2023-12-20T07:37:00;5.90;99.90
9810;DHT22;4944;52.514;13.192;2023-12-20T07:39:27;5.90;99.90
9810;DHT22;4944;52.514;13.192;2023-12-20T07:41:54;5.90;99.90
9810;DHT22;4944;52.514;13.192;2023-12-20T07:44:21;5.90;99.90
9810;DHT22;4944;52.514;13.192;2023-12-20T07:46:48;5.90;99.90
9810;DHT22;4944;52.514;13.192;2023-12-20T07:49:17;5.90;99.90
9810;DHT22;4944;52.514;13.192;2023-12-20T07:51:43;5.90;99.90
9810;DHT22;4944;52.514;13.192;2023-12-20T07:54:10;5.90;99.90
9810;DHT22;4944;52.514;13.192;2023-12-20T07:56:37;5.90;99.90
9810;DHT22;4944;52.514;13.192;2023-12-20T07:59:05;6.00;99.90
9810;DHT22;4944;52.514;13.192;2023-12-20T08:01:32;6.00;99.90
9810;DHT22;4944;52.514;13.192;2023-12-20T08:03:59;6.00;99.90
9810;DHT22;4944;52.514;13.192;2023-12-20T08:06:27;6.00;99.90
9810;DHT22;4944;52.514;13.192;2023-12-20T08:08:54;6.00;99.90
9810;DHT22;4944;52.514;13.192;2023-12-20T08:11:21;6.00;99.90
9810;DHT22;4944;52.514;13.192;2023-12-20T08:13:48;6.00;99.90
9810;DHT22;4944;52.514;13.192;2023-12-20T08:16:15;6.00;99.90
9810;DHT22;4944;52.514;13.192;2023-12-20T08:18:43;6.00;99.90
9810;DHT22;4944;52.514;13.192;2023-12-20T08:21:09;6.00;99.90
9810;DHT22;4944;52.514;13.192;2023-12-20T08:23:38;6.00;99.90
9810;DHT22;4944;52.514;13.192;2023-12-20T08:26:05;6.00;99.90
9810;DHT22;4944;52.514;13.192;2023-12-20T08:28:32;6.10;99.90
9810;DHT22;4944;52.514;13.192;2023-12-20T08:30:59;6.10;99.90
9810;DHT22;4944;52.514;13.192;2023-12-20T08:33:26;6.10;99.90
9810;DHT22;4944;52.514;13.192;2023-12-20T08:35:53;6.10;99.90
9810;DHT22;4944;52.514;13.192;2023-12-20T08:38:20;6.10;99.90
9810;DHT22;4944;52.514;13.192;2023-12-20T08:40:48;6.20;99.90
9810;DHT22;4944;52.514;13.192;2023-12-20T08:43:15;6.20;99.90
9810;DHT22;4944;52.514;13.192;2023-12-20T08:45:42;6.20;99.90
9810;DHT22;4944;52.514;13.192;2023-12-20T08:48:09;6.30;99.90
9810;DHT22;4944;52.514;13.192;2023-12-20T08:50:35;6.30;99.90
9810;DHT22;4944;52.514;13.192;2023-12-20T08:53:03;6.30;99.90
9810;DHT22;4944;52.514;13.192;2023-12-20T08:55:30;6.30;99.90
9810;DHT22;4944;52.514;13.192;2023-12-20T08:57:58;6.30;99.90
9810;DHT22;4944;52.514;13.192;2023-12-20T09:00:25;6.40;99.90
9810;DHT22;4944;52.514;13.192;2023-12-20T09:02:53;6.40;99.90
9810;DHT22;4944;52.514;13.192;2023-12-20T09:05:20;6.40;99.90
9810;DHT22;4944;52.514;13.192;2023-12-20T09:07:48;6.40;99.90
9810;DHT22;4944;52.514;13.192;2023-12-20T09:10:14;6.50;99.90
9810;DHT22;4944;52.514;13.192;2023-12-20T09:12:41;6.50;99.90
9810;DHT22;4944;52.514;13.192;2023-12-20T09:15:10;6.50;99.90
9810;DHT22;4944;52.514;13.192;2023-12-20T09:17:37;6.50;99.90
9810;DHT22;4944;52.514;13.192;2023-12-20T09:20:04;6.50;99.90
9810;DHT22;4944;52.514;13.192;2023-12-20T09:22:33;6.60;99.90
9810;DHT22;4944;52.514;13.192;2023-12-20T09:25:00;6.60;99.90
9810;DHT22;4944;52.514;13.192;2023-12-20T09:27:27;6.60;99.90
9810;DHT22;4944;52.514;13.192;2023-12-20T09:29:54;6.60;99.90
9810;DHT22;4944;52.514;13.192;2023-12-20T09:32:22;6.60;99.90
9810;DHT22;4944;52.514;13.192;2023-12-20T09:34:49;6.60;99.90
9810;DHT22;4944;52.514;13.192;2023-12-20T09:37:16;6.70;99.90
9810;DHT22;4944;52.514;13.192;2023-12-20T09:39:43;6.70;99.90
9810;DHT22;4944;52.514;13.192;2023-12-20T09:42:12;6.70;99.90
9810;DHT22;4944;52.514;13.192;2023-12-20T09:44:43;6.70;99.90
9810;DHT22;4944;52.514;13.192;2023-12-20T09:47:11;6.70;99.90
9810;DHT22;4944;52.514;13.192;2023-12-20T09:49:40;6.70;99.90
9810;DHT22;4944;52.514;13.192;2023-12-20T09:52:08;6.70;99.90
9810;DHT22;4944;52.514;13.192;2023-12-20T09:54:36;6.70;99.90
9810;DHT22;4944;52.514;13.192;2023-12-20T09:57:04;6.70;99.90
9810;DHT22;4944;52.514;13.192;2023-12-20T09:59:31;6.70;99.90
9810;DHT22;4944;52.514;13.192;2023-12-20T10:01:58;6.70;99.90
9810;DHT22;4944;52.514;13.192;2023-12-20T10:04:32;6.80;99.90
9810;DHT22;4944;52.514;13.192;2023-12-20T10:07:03;6.80;99.90
9810;DHT22;4944;52.514;13.192;2023-12-20T10:09:31;6.80;99.90
9810;DHT22;4944;52.514;13.192;2023-12-20T10:11:59;6.80;99.90
9810;DHT22;4944;52.514;13.192;2023-12-20T10:14:26;6.80;99.90
9810;DHT22;4944;52.514;13.192;2023-12-20T10:16:53;6.80;99.90
9810;DHT22;4944;52.514;13.192;2023-12-20T10:19:21;6.80;99.90
9810;DHT22;4944;52.514;13.192;2023-12-20T10:21:48;6.80;99.90
9810;DHT22;4944;52.514;13.192;2023-12-20T10:24:18;6.80;99.90
9810;DHT22;4944;52.514;13.192;2023-12-20T10:26:45;6.80;99.90
9810;DHT22;4944;52.514;13.192;2023-12-20T10:29:12;6.80;99.90
9810;DHT22;4944;52.514;13.192;2023-12-20T10:31:39;6.90;99.90
9810;DHT22;4944;52.514;13.192;2023-12-20T10:34:06;6.90;99.90
9810;DHT22;4944;52.514;13.192;2023-12-20T10:36:33;6.90;99.90
9810;DHT22;4944;52.514;13.192;2023-12-20T10:39:02;6.90;99.90
9810;DHT22;4944;52.514;13.192;2023-12-20T10:41:32;6.90;99.90
9810;DHT22;4944;52.514;13.192;2023-12-20T10:44:02;6.90;99.90
9810;DHT22;4944;52.514;13.192;2023-12-20T10:46:30;6.90;99.90
9810;DHT22;4944;52.514;13.192;2023-12-20T10:48:58;7.00;99.90
9810;DHT22;4944;52.514;13.192;2023-12-20T10:51:26;7.00;99.90
9810;DHT22;4944;52.514;13.192;2023-12-20T10:53:55;7.00;99.90
9810;DHT22;4944;52.514;13.192;2023-12-20T10:56:23;7.00;99.90
9810;DHT22;4944;52.514;13.192;2023-12-20T10:58:52;7.00;99.90
9810;DHT22;4944;52.514;13.192;2023-12-20T11:01:19;7.00;99.90
9810;DHT22;4944;52.514;13.192;2023-12-20T11:03:49;7.00;99.90
9810;DHT22;4944;52.514;13.192;2023-12-20T11:06:27;7.00;99.90
9810;DHT22;4944;52.514;13.192;2023-12-20T11:09:01;6.90;99.90
9810;DHT22;4944;52.514;13.192;2023-12-20T11:11:39;6.90;99.90
9810;DHT22;4944;52.514;13.192;2023-12-20T11:14:15;6.90;99.90
9810;DHT22;4944;52.514;13.192;2023-12-20T11:16:44;6.90;99.90
9810;DHT22;4944;52.514;13.192;2023-12-20T11:19:12;6.90;99.90
9810;DHT22;4944;52.514;13.192;2023-12-20T11:21:40;6.90;99.90
9810;DHT22;4944;52.514;13.192;2023-12-20T11:24:07;6.90;99.90
9810;DHT22;4944;52.514;13.192;2023-12-20T11:26:34;6.90;99.90
9810;DHT22;4944;52.514;13.192;2023-12-20T11:29:33;6.90;99.90
9810;DHT22;4944;52.514;13.192;2023-12-20T11:32:04;6.90;99.90
9810;DHT22;4944;52.514;13.192;2023-12-20T11:34:53;6.90;99.90
9810;DHT22;4944;52.514;13.192;2023-12-20T11:37:21;6.90;99.90
9810;DHT22;4944;52.514;13.192;2023-12-20T11:39:54;6.90;99.90
9810;DHT22;4944;52.514;13.192;2023-12-20T11:42:22;7.00;99.90
9810;DHT22;4944;52.514;13.192;2023-12-20T11:44:50;7.00;99.90
9810;DHT22;4944;52.514;13.192;2023-12-20T11:47:18;7.00;99.90
9810;DHT22;4944;52.514;13.192;2023-12-20T11:49:47;6.90;99.90
9810;DHT22;4944;52.514;13.192;2023-12-20T11:52:14;7.00;99.90
9810;DHT22;4944;52.514;13.192;2023-12-20T11:54:41;7.00;99.90
9810;DHT22;4944;52.514;13.192;2023-12-20T11:57:08;7.00;99.90
9810;DHT22;4944;52.514;13.192;2023-12-20T11:59:36;7.00;99.90
9810;DHT22;4944;52.514;13.192;2023-12-20T12:02:05;6.90;99.90
9810;DHT22;4944;52.514;13.192;2023-12-20T12:04:32;7.00;99.90
9810;DHT22;4944;52.514;13.192;2023-12-20T12:06:59;7.00;99.90
9810;DHT22;4944;52.514;13.192;2023-12-20T12:09:26;7.00;99.90
9810;DHT22;4944;52.514;13.192;2023-12-20T12:11:53;7.00;99.90
9810;DHT22;4944;52.514;13.192;2023-12-20T12:14:20;7.10;99.90
9810;DHT22;4944;52.514;13.192;2023-12-20T12:16:47;7.00;99.90
9810;DHT22;4944;52.514;13.192;2023-12-20T12:19:26;7.10;99.90
9810;DHT22;4944;52.514;13.192;2023-12-20T12:22:04;7.10;99.90
9810;DHT22;4944;52.514;13.192;2023-12-20T12:24:32;7.10;99.90
9810;DHT22;4944;52.514;13.192;2023-12-20T12:26:59;7.00;99.90
9810;DHT22;4944;52.514;13.192;2023-12-20T12:29:27;6.90;99.90
9810;DHT22;4944;52.514;13.192;2023-12-20T12:31:54;6.80;99.90
9810;DHT22;4944;52.514;13.192;2023-12-20T12:34:21;6.70;99.90
9810;DHT22;4944;52.514;13.192;2023-12-20T12:36:49;6.70;99.90
9810;DHT22;4944;52.514;13.192;2023-12-20T12:39:17;6.60;99.90
9810;DHT22;4944;52.514;13.192;2023-12-20T12:41:44;6.60;99.90
9810;DHT22;4944;52.514;13.192;2023-12-20T12:44:11;6.50;99.90
9810;DHT22;4944;52.514;13.192;2023-12-20T12:46:38;6.50;99.90
9810;DHT22;4944;52.514;13.192;2023-12-20T12:49:05;6.50;99.90
9810;DHT22;4944;52.514;13.192;2023-12-20T12:51:32;6.50;99.90
9810;DHT22;4944;52.514;13.192;2023-12-20T12:54:00;6.60;99.90
9810;DHT22;4944;52.514;13.192;2023-12-20T12:56:27;6.60;99.90
9810;DHT22;4944;52.514;13.192;2023-12-20T12:58:54;6.60;99.90
9810;DHT22;4944;52.514;13.192;2023-12-20T13:01:21;6.60;99.90
9810;DHT22;4944;52.514;13.192;2023-12-20T13:03:48;6.70;99.90
9810;DHT22;4944;52.514;13.192;2023-12-20T13:06:15;6.60;99.90
9810;DHT22;4944;52.514;13.192;2023-12-20T13:08:42;6.60;99.90
9810;DHT22;4944;52.514;13.192;2023-12-20T13:11:12;6.60;99.90
9810;DHT22;4944;52.514;13.192;2023-12-20T13:13:39;6.50;99.90
9810;DHT22;4944;52.514;13.192;2023-12-20T13:16:06;6.50;99.90
9810;DHT22;4944;52.514;13.192;2023-12-20T13:18:33;6.50;99.90
9810;DHT22;4944;52.514;13.192;2023-12-20T13:21:00;6.50;99.90
9810;DHT22;4944;52.514;13.192;2023-12-20T13:23:27;6.10;99.90
9810;DHT22;4944;52.514;13.192;2023-12-20T13:25:54;6.00;99.90
9810;DHT22;4944;52.514;13.192;2023-12-20T13:28:22;5.90;99.90
9810;DHT22;4944;52.514;13.192;2023-12-20T13:30:49;5.90;99.90
9810;DHT22;4944;52.514;13.192;2023-12-20T13:33:16;5.80;99.90
9810;DHT22;4944;52.514;13.192;2023-12-20T13:35:43;5.70;99.90
9810;DHT22;4944;52.514;13.192;2023-12-20T13:38:10;5.70;99.90
9810;DHT22;4944;52.514;13.192;2023-12-20T13:40:39;5.70;99.90
9810;DHT22;4944;52.514;13.192;2023-12-20T13:43:06;5.70;99.90
9810;DHT22;4944;52.514;13.192;2023-12-20T13:45:34;5.80;99.90
9810;DHT22;4944;52.514;13.192;2023-12-20T13:48:01;5.80;99.90
9810;DHT22;4944;52.514;13.192;2023-12-20T13:50:30;5.80;99.90
9810;DHT22;4944;52.514;13.192;2023-12-20T13:52:56;5.80;99.90
9810;DHT22;4944;52.514;13.192;2023-12-20T13:55:23;5.90;99.90
9810;DHT22;4944;52.514;13.192;2023-12-20T13:57:53;5.90;99.90
9810;DHT22;4944;52.514;13.192;2023-12-20T14:00:19;5.90;99.90
9810;DHT22;4944;52.514;13.192;2023-12-20T14:02:48;5.80;99.90
9810;DHT22;4944;52.514;13.192;2023-12-20T14:05:15;5.80;99.90
9810;DHT22;4944;52.514;13.192;2023-12-20T14:07:43;5.70;99.90
9810;DHT22;4944;52.514;13.192;2023-12-20T14:10:11;5.70;99.90
9810;DHT22;4944;52.514;13.192;2023-12-20T14:12:38;5.60;99.90
9810;DHT22;4944;52.514;13.192;2023-12-20T14:15:06;5.60;99.90
9810;DHT22;4944;52.514;13.192;2023-12-20T14:17:36;5.50;99.90
9810;DHT22;4944;52.514;13.192;2023-12-20T14:20:06;5.50;99.90
9810;DHT22;4944;52.514;13.192;2023-12-20T14:22:33;5.50;99.90
9810;DHT22;4944;52.514;13.192;2023-12-20T14:25:01;5.50;99.90
9810;DHT22;4944;52.514;13.192;2023-12-20T14:27:28;5.50;99.90
9810;DHT22;4944;52.514;13.192;2023-12-20T14:29:55;5.50;99.90
9810;DHT22;4944;52.514;13.192;2023-12-20T14:32:22;5.40;99.90
9810;DHT22;4944;52.514;13.192;2023-12-20T14:34:49;5.50;99.90
9810;DHT22;4944;52.514;13.192;2023-12-20T14:37:17;5.50;99.90
9810;DHT22;4944;52.514;13.192;2023-12-20T14:39:44;5.50;99.90
9810;DHT22;4944;52.514;13.192;2023-12-20T14:42:11;5.50;99.90
9810;DHT22;4944;52.514;13.192;2023-12-20T14:44:39;5.60;99.90
9810;DHT22;4944;52.514;13.192;2023-12-20T14:47:06;5.60;99.90
9810;DHT22;4944;52.514;13.192;2023-12-20T14:49:33;5.60;99.90
9810;DHT22;4944;52.514;13.192;2023-12-20T14:52:01;5.60;99.90
9810;DHT22;4944;52.514;13.192;2023-12-20T14:54:29;5.50;99.90
9810;DHT22;4944;52.514;13.192;2023-12-20T14:56:57;5.50;99.90
9810;DHT22;4944;52.514;13.192;2023-12-20T14:59:24;5.50;99.90
9810;DHT22;4944;52.514;13.192;2023-12-20T15:01:51;5.50;99.90
9810;DHT22;4944;52.514;13.192;2023-12-20T15:04:18;5.50;99.90
9810;DHT22;4944;52.514;13.192;2023-12-20T15:06:51;5.50;99.90
9810;DHT22;4944;52.514;13.192;2023-12-20T15:09:18;5.50;99.90
9810;DHT22;4944;52.514;13.192;2023-12-20T15:11:46;5.50;99.90
9810;DHT22;4944;52.514;13.192;2023-12-20T15:14:13;5.60;99.90
9810;DHT22;4944;52.514;13.192;2023-12-20T15:16:45;5.50;99.90
9810;DHT22;4944;52.514;13.192;2023-12-20T15:19:13;5.50;99.90
9810;DHT22;4944;52.514;13.192;2023-12-20T15:21:40;5.40;99.90
9810;DHT22;4944;52.514;13.192;2023-12-20T15:24:08;5.50;99.90
9810;DHT22;4944;52.514;13.192;2023-12-20T15:26:40;5.50;99.90
9810;DHT22;4944;52.514;13.192;2023-12-20T15:29:09;5.50;99.90
9810;DHT22;4944;52.514;13.192;2023-12-20T15:31:41;5.50;99.90
9810;DHT22;4944;52.514;13.192;2023-12-20T15:34:09;5.40;99.90
9810;DHT22;4944;52.514;13.192;2023-12-20T15:36:36;5.40;99.90
9810;DHT22;4944;52.514;13.192;2023-12-20T15:39:04;5.40;99.90
9810;DHT22;4944;52.514;13.192;2023-12-20T15:41:31;5.50;99.90
9810;DHT22;4944;52.514;13.192;2023-12-20T15:43:58;5.40;99.90
9810;DHT22;4944;52.514;13.192;2023-12-20T15:46:27;5.40;99.90
9810;DHT22;4944;52.514;13.192;2023-12-20T15:48:53;5.40;99.90
9810;DHT22;4944;52.514;13.192;2023-12-20T15:51:21;5.30;99.90
9810;DHT22;4944;52.514;13.192;2023-12-20T15:53:49;5.30;99.90
9810;DHT22;4944;52.514;13.192;2023-12-20T15:56:16;5.30;99.90
9810;DHT22;4944;52.514;13.192;2023-12-20T15:58:43;5.30;99.90
9810;DHT22;4944;52.514;13.192;2023-12-20T16:01:10;5.20;99.90
9810;DHT22;4944;52.514;13.192;2023-12-20T16:03:38;5.20;99.90